Time;durP1;ratioP1;P1;durP2;ratioP2;P2;SDS_P1;SDS_P2;PMS_P1;PMS_P2;Temp;Humidity;BMP_temperature;BMP_pressure;BME280_temperature;BME280_humidity;BME280_pressure;Samples;Min_cycle;Max_cycle;Signal;HPM_P1;HPM_P2
2023/02/05 00:01:22;;;;;;;6.25;2.65;;;;;;;-4.13;72.66;101624.05;1480176;88;22557;-90
2023/02/05 00:03:49;;;;;;;5.17;2.80;;;;;;;-4.09;72.60;101630.02;1471204;88;21650;-90
2023/02/05 00:06:16;;;;;;;5.95;3.10;;;;;;;-4.09;72.17;101625.70;1473506;88;21479;-90
2023/02/05 00:08:42;;;;;;;7.30;2.70;;;;;;;-3.98;71.97;101628.56;1476258;88;21522;-90
2023/02/05 00:11:08;;;;;;;6.05;3.20;;;;;;;-3.99;71.80;101641.09;1483955;88;21433;-90
2023/02/05 00:13:37;;;;;;;9.40;4.20;;;;;;;-3.92;71.23;101643.97;1471183;88;22480;-90
2023/02/05 00:16:15;;;;;;;5.53;2.80;;;;;;;-3.83;71.91;101645.10;1478457;88;21493;-90
2023/02/05 00:18:42;;;;;;;4.85;2.98;;;;;;;-3.79;71.84;101648.06;1471741;88;22638;-91
2023/02/05 00:21:09;;;;;;;9.55;3.33;;;;;;;-3.76;71.20;101648.45;1470921;88;21331;-90
2023/02/05 00:23:36;;;;;;;3.95;2.33;;;;;;;-3.72;70.72;101654.83;1481331;88;22351;-90
2023/02/05 00:26:05;;;;;;;5.30;2.87;;;;;;;-3.62;71.03;101659.42;1468077;88;22257;-90
2023/02/05 00:28:34;;;;;;;7.08;3.52;;;;;;;-3.54;71.13;101664.44;1470878;88;21447;-92
2023/02/05 00:31:02;;;;;;;6.05;3.80;;;;;;;-3.57;70.85;101664.50;1480849;88;21586;-90
2023/02/05 00:33:28;;;;;;;6.47;3.33;;;;;;;-3.49;70.91;101673.83;1470110;88;21493;-92
2023/02/05 00:35:54;;;;;;;6.95;3.35;;;;;;;-3.51;70.54;101673.03;1463516;88;21470;-89
2023/02/05 00:38:21;;;;;;;7.45;3.92;;;;;;;-3.53;70.07;101676.52;1479520;88;21560;-87
2023/02/05 00:40:47;;;;;;;5.83;2.60;;;;;;;-3.49;69.92;101679.00;1470276;88;22476;-88
2023/02/05 00:43:13;;;;;;;6.10;3.65;;;;;;;-3.50;69.94;101677.75;1480362;88;21375;-88
2023/02/05 00:45:39;;;;;;;6.90;2.87;;;;;;;-3.40;70.40;101680.58;1472181;88;21419;-89
2023/02/05 00:48:06;;;;;;;7.53;2.70;;;;;;;-3.46;69.42;101679.39;1475383;88;21464;-87
2023/02/05 00:50:34;;;;;;;5.35;2.85;;;;;;;-3.44;69.38;101677.20;1469499;88;21486;-89
2023/02/05 00:53:00;;;;;;;5.35;3.15;;;;;;;-3.43;69.66;101676.75;1469740;88;21612;-89
2023/02/05 00:55:27;;;;;;;8.03;3.20;;;;;;;-3.41;69.59;101685.35;1474050;88;21479;-90
2023/02/05 00:57:54;;;;;;;7.20;3.10;;;;;;;-3.40;70.00;101689.64;1474792;88;21626;-90
2023/02/05 01:00:20;;;;;;;6.67;2.40;;;;;;;-3.44;69.84;101686.25;1479325;88;22351;-88
2023/02/05 01:02:47;;;;;;;9.58;3.42;;;;;;;-3.40;68.90;101683.16;1485413;88;22402;-87
2023/02/05 01:05:13;;;;;;;9.98;3.37;;;;;;;-3.38;69.24;101689.17;1485282;88;22440;-89
2023/02/05 01:07:40;;;;;;;6.45;3.52;;;;;;;-3.38;69.68;101685.29;1478877;88;21530;-91
2023/02/05 01:10:07;;;;;;;10.15;3.83;;;;;;;-3.38;69.28;101680.11;1482015;88;21592;-90
2023/02/05 01:12:34;;;;;;;4.87;2.95;;;;;;;-3.39;69.62;101681.01;1476302;88;21463;-90
2023/02/05 01:15:02;;;;;;;7.85;3.98;;;;;;;-3.39;69.50;101683.59;1473734;88;21471;-89
2023/02/05 01:17:28;;;;;;;9.10;4.80;;;;;;;-3.39;70.19;101682.30;1479017;88;21500;-88
2023/02/05 01:19:54;;;;;;;8.30;4.90;;;;;;;-3.36;70.37;101688.72;1477299;88;21570;-90
2023/02/05 01:22:21;;;;;;;7.97;4.05;;;;;;;-3.37;70.40;101690.87;1479354;88;21582;-91
2023/02/05 01:24:47;;;;;;;10.10;3.52;;;;;;;-3.34;70.26;101685.63;1480655;88;22432;-88
2023/02/05 01:27:13;;;;;;;8.10;4.20;;;;;;;-3.39;70.40;101684.89;1484873;88;21441;-89
2023/02/05 01:29:40;;;;;;;9.45;4.80;;;;;;;-3.43;69.94;101685.81;1482796;88;21578;-90
2023/02/05 01:32:06;;;;;;;8.55;3.30;;;;;;;-3.40;70.32;101677.98;1478906;88;21426;-89
2023/02/05 01:34:32;;;;;;;8.53;4.33;;;;;;;-3.42;70.18;101685.80;1482670;88;22357;-87
2023/02/05 01:36:58;;;;;;;9.33;3.83;;;;;;;-3.42;70.07;101683.20;1454005;88;21322;-86
2023/02/05 01:39:24;;;;;;;7.37;3.98;;;;;;;-3.40;70.24;101683.16;1471777;88;21485;-86
2023/02/05 01:41:51;;;;;;;6.42;3.52;;;;;;;-3.37;69.79;101680.52;1474965;88;21389;-87
2023/02/05 01:44:23;;;;;;;6.37;3.00;;;;;;;-3.37;70.01;101681.81;1481441;88;21368;-86
2023/02/05 01:46:52;;;;;;;6.05;3.60;;;;;;;-3.41;69.68;101686.20;1485724;88;21485;-89
2023/02/05 01:49:24;;;;;;;8.85;4.17;;;;;;;-3.34;69.83;101693.41;1482677;88;21656;-89
2023/02/05 01:51:54;;;;;;;12.68;4.92;;;;;;;-3.34;69.80;101697.28;1472816;88;21442;-89
2023/02/05 01:54:24;;;;;;;10.18;3.62;;;;;;;-3.29;70.72;101699.36;1478232;88;21374;-89
2023/02/05 01:57:04;;;;;;;9.75;4.20;;;;;;;-3.34;69.20;101695.98;1481760;88;21397;-90
2023/02/05 01:59:34;;;;;;;11.28;3.77;;;;;;;-3.30;69.59;101696.36;1474141;88;21500;-89
2023/02/05 02:02:05;;;;;;;6.28;3.05;;;;;;;-3.29;69.29;101697.22;1472919;88;21537;-87
2023/02/05 02:04:35;;;;;;;8.20;4.95;;;;;;;-3.29;69.01;101692.88;1476841;88;22378;-87
2023/02/05 02:07:03;;;;;;;8.93;3.45;;;;;;;-3.26;70.28;101683.77;1479569;88;21492;-89
2023/02/05 02:09:29;;;;;;;6.42;3.95;;;;;;;-3.25;70.11;101670.38;1478707;88;21559;-87
2023/02/05 02:11:58;;;;;;;13.35;4.87;;;;;;;-3.27;69.23;101677.34;1474014;88;22444;-87
2023/02/05 02:14:28;;;;;;;7.55;3.02;;;;;;;-3.26;69.59;101681.17;1477490;88;21456;-87
2023/02/05 02:16:55;;;;;;;9.78;4.35;;;;;;;-3.31;69.53;101681.73;1480951;88;21507;-87
2023/02/05 02:19:27;;;;;;;7.40;3.85;;;;;;;-3.37;69.53;101691.31;1462148;88;21426;-87
2023/02/05 02:22:20;;;;;;;6.42;3.92;;;;;;;-3.43;69.81;101685.81;1468175;88;22372;-87
2023/02/05 02:25:27;;;;;;;7.20;3.55;;;;;;;-3.38;70.13;101694.35;1485428;88;21456;-88
2023/02/05 02:28:23;;;;;;;9.43;4.65;;;;;;;-3.44;69.91;101697.05;1474811;88;21434;-91
2023/02/05 02:31:22;;;;;;;8.20;4.17;;;;;;;-3.43;70.27;101691.83;1479301;88;21685;-90
2023/02/05 02:33:57;;;;;;;10.93;4.58;;;;;;;-3.42;70.21;101690.13;1479161;88;21456;-88
2023/02/05 02:36:41;;;;;;;6.60;4.22;;;;;;;-3.44;70.21;101696.61;1471955;88;22197;-87
2023/02/05 02:39:21;;;;;;;8.58;3.67;;;;;;;-3.51;70.10;101696.32;1479156;88;23126;-87
2023/02/05 02:42:05;;;;;;;15.03;5.47;;;;;;;-3.50;70.60;101694.58;1477640;88;22439;-89
2023/02/05 02:44:52;;;;;;;4.12;2.55;;;;;;;-3.54;70.44;101696.38;1476228;88;21455;-88
2023/02/05 02:47:22;;;;;;;8.30;4.03;;;;;;;-3.60;70.38;101695.16;1481197;88;21768;-90
2023/02/05 02:50:02;;;;;;;9.40;4.30;;;;;;;-3.59;70.73;101707.69;1480501;88;22343;-92
2023/02/05 02:52:33;;;;;;;12.80;5.95;;;;;;;-3.62;70.69;101711.17;1463686;88;21626;-88
2023/02/05 02:55:04;;;;;;;9.05;4.92;;;;;;;-3.67;71.19;101720.30;1477439;88;21427;-88
2023/02/05 02:57:34;;;;;;;11.45;5.53;;;;;;;-3.69;71.13;101711.70;1484179;88;21360;-89
2023/02/05 03:00:05;;;;;;;10.38;4.87;;;;;;;-3.74;71.04;101713.95;1473443;88;22269;-90
2023/02/05 03:02:33;;;;;;;;;;;;;;;-3.79;71.10;101716.62;1474620;88;21477;-90
2023/02/05 03:05:04;;;;;;;8.25;4.35;;;;;;;-3.79;71.35;101723.53;1480931;88;20276;-89
2023/02/05 03:07:42;;;;;;;7.67;4.35;;;;;;;-3.86;71.39;101725.34;1474046;88;22262;-88
2023/02/05 03:10:19;;;;;;;11.28;5.42;;;;;;;-3.83;71.56;101727.88;1475629;88;21537;-89
2023/02/05 03:12:46;;;;;;;8.45;4.22;;;;;;;-3.87;71.31;101727.09;1452184;88;21427;-91
2023/02/05 03:15:12;;;;;;;10.32;4.40;;;;;;;-3.89;71.38;101720.22;1478109;88;21485;-89
2023/02/05 03:17:40;;;;;;;11.10;4.55;;;;;;;-3.90;71.75;101727.13;1470707;88;21611;-91
2023/02/05 03:20:21;;;;;;;10.43;5.15;;;;;;;-3.92;72.04;101728.03;1483253;88;22402;-88
2023/02/05 03:22:47;;;;;;;14.13;5.62;;;;;;;-4.00;72.05;101733.75;1478596;88;22254;-91
2023/02/05 03:25:17;;;;;;;9.85;4.10;;;;;;;-3.98;71.97;101730.72;1474993;88;21501;-89
2023/02/05 03:27:43;;;;;;;9.63;4.65;;;;;;;-4.03;71.81;101735.95;1472697;88;21544;-89
2023/02/05 03:30:35;;;;;;;9.70;5.42;;;;;;;-4.03;71.63;101736.39;1473944;88;22319;-87
2023/02/05 03:33:28;;;;;;;14.68;5.97;;;;;;;-4.03;71.63;101737.23;1477246;88;22521;-89
2023/02/05 03:36:06;;;;;;;9.65;4.90;;;;;;;-4.04;71.58;101736.83;1474661;88;22590;-90
2023/02/05 03:38:52;;;;;;;9.83;4.58;;;;;;;-4.01;71.78;101743.70;1479484;88;22336;-89
2023/02/05 03:41:54;;;;;;;14.10;6.03;;;;;;;-4.01;72.07;101747.58;1490516;88;21441;-90
2023/02/05 03:44:09;;;;;;;9.13;5.25;;;;;;;-4.05;72.21;101753.68;1472852;88;21656;-89
2023/02/05 03:46:44;;;;;;;13.62;4.72;;;;;;;-4.07;72.26;101758.02;1479095;88;21462;-89
2023/02/05 03:49:32;;;;;;;11.68;5.12;;;;;;;-4.10;72.50;101755.87;1479361;88;21434;-89
2023/02/05 03:52:21;;;;;;;12.58;6.15;;;;;;;-4.16;72.76;101754.67;1480176;88;21492;-89
2023/02/05 03:55:12;;;;;;;6.25;4.20;;;;;;;-4.17;72.90;101747.80;1479829;88;21603;-89
2023/02/05 03:57:57;;;;;;;;;;;;;;;-4.13;72.93;101752.48;1478131;88;21486;-91
2023/02/05 04:00:25;;;;;;;11.28;5.33;;;;;;;-4.18;72.68;101757.70;1489561;88;20409;-90
2023/02/05 04:02:52;;;;;;;8.35;4.15;;;;;;;-4.15;72.70;101757.66;1461170;88;21478;-90
2023/02/05 04:05:21;;;;;;;9.95;4.50;;;;;;;-4.14;72.64;101752.08;1471743;88;21563;-90
2023/02/05 04:07:48;;;;;;;10.58;5.55;;;;;;;-4.16;72.59;101762.44;1483372;88;21470;-87
2023/02/05 04:10:15;;;;;;;10.72;4.72;;;;;;;-4.12;72.08;101758.91;1477332;88;21677;-91
2023/02/05 04:12:41;;;;;;;8.03;4.37;;;;;;;-4.06;72.35;101770.05;1479125;88;21419;-90
2023/02/05 04:15:10;;;;;;;10.13;5.12;;;;;;;-4.14;72.20;101767.16;1482489;88;22429;-91
2023/02/05 04:17:38;;;;;;;7.40;4.08;;;;;;;-4.10;72.25;101770.09;1439623;88;21352;-88
2023/02/05 04:20:06;;;;;;;7.17;3.60;;;;;;;-4.13;71.91;101762.83;1480181;88;21559;-85
2023/02/05 04:22:33;;;;;;;10.80;4.62;;;;;;;-4.15;71.86;101760.25;1482501;88;22408;-87
2023/02/05 04:24:59;;;;;;;9.30;4.65;;;;;;;-4.13;71.53;101762.38;1473583;88;21434;-85
2023/02/05 04:27:25;;;;;;;7.95;3.83;;;;;;;-4.10;71.65;101762.34;1459945;88;21367;-86
2023/02/05 04:29:51;;;;;;;12.58;4.60;;;;;;;-4.06;71.85;101761.00;1477585;88;22321;-91
2023/02/05 04:32:17;;;;;;;9.78;5.28;;;;;;;-4.14;72.05;101755.96;1481752;88;21946;-89
2023/02/05 04:34:44;;;;;;;6.45;3.20;;;;;;;-4.12;71.98;101757.62;1488921;88;21545;-90
2023/02/05 04:37:10;;;;;;;9.75;4.70;;;;;;;-4.15;71.83;101764.12;1481721;88;21648;-89
2023/02/05 04:39:36;;;;;;;9.63;4.53;;;;;;;-4.16;71.88;101758.55;1478333;88;22351;-88
2023/02/05 04:42:02;;;;;;;10.35;4.92;;;;;;;-4.20;72.34;101761.19;1494498;88;21323;-87
2023/02/05 04:44:29;;;;;;;9.28;4.72;;;;;;;-4.15;72.23;101765.42;1485893;88;21515;-88
2023/02/05 04:46:55;;;;;;;8.55;4.40;;;;;;;-4.19;72.29;101774.11;1487515;88;21426;-87
2023/02/05 04:49:21;;;;;;;7.50;4.83;;;;;;;-4.21;72.21;101762.92;1475754;88;21471;-89
2023/02/05 04:51:47;;;;;;;7.00;3.85;;;;;;;-4.15;72.26;101768.01;1456541;88;22254;-90
2023/02/05 04:54:15;;;;;;;7.70;4.37;;;;;;;-4.16;72.35;101770.63;1474642;88;21566;-90
2023/02/05 04:56:45;;;;;;;10.98;5.30;;;;;;;-4.18;72.13;101768.50;1478435;88;21456;-90
2023/02/05 04:59:12;;;;;;;8.10;3.90;;;;;;;-4.15;72.26;101777.06;1483403;88;21714;-88
2023/02/05 05:01:38;;;;;;;7.80;3.87;;;;;;;-4.20;72.15;101778.87;1479536;88;21368;-90
2023/02/05 05:04:04;;;;;;;7.15;4.83;;;;;;;-4.19;72.30;101782.31;1467993;88;21649;-86
2023/02/05 05:06:32;;;;;;;6.50;3.15;;;;;;;-4.21;72.61;101788.78;1471827;88;22277;-89
2023/02/05 05:08:58;;;;;;;11.00;5.08;;;;;;;-4.21;72.36;101791.80;1478387;88;21456;-86
2023/02/05 05:11:24;;;;;;;9.68;4.40;;;;;;;-4.17;72.74;101790.47;1479013;88;21614;-90
2023/02/05 05:13:51;;;;;;;8.68;4.28;;;;;;;-4.18;72.81;101791.77;1478446;88;21456;-90
2023/02/05 05:16:18;;;;;;;8.00;4.20;;;;;;;-4.17;73.00;101789.17;1469426;88;21450;-88
2023/02/05 05:18:44;;;;;;;9.70;5.20;;;;;;;-4.20;72.99;101790.51;1475538;88;21471;-87
2023/02/05 05:21:11;;;;;;;10.03;4.25;;;;;;;-4.17;73.11;101798.64;1473835;88;21634;-88
2023/02/05 05:23:38;;;;;;;11.00;5.03;;;;;;;-4.18;73.48;101793.05;1477694;88;21486;-90
2023/02/05 05:26:08;;;;;;;10.40;5.33;;;;;;;-4.16;73.75;101805.09;1479265;88;21604;-88
2023/02/05 05:28:35;;;;;;;8.48;5.17;;;;;;;-4.18;73.68;101806.84;1474393;88;21592;-87
2023/02/05 05:31:08;;;;;;;9.98;4.72;;;;;;;-4.14;73.78;101803.35;1472812;88;21419;-88
2023/02/05 05:33:35;;;;;;;11.70;5.22;;;;;;;-4.17;74.00;101812.45;1470590;88;21493;-87
2023/02/05 05:36:02;;;;;;;12.13;5.10;;;;;;;-4.16;74.50;101802.51;1469790;88;21633;-85
2023/02/05 05:38:28;;;;;;;10.08;5.90;;;;;;;-4.14;74.49;101817.58;1475962;88;21611;-85
2023/02/05 05:43:45;;;;;;;9.68;4.58;;;;;;;-4.13;75.10;101815.39;1465746;88;21457;-86
2023/02/05 05:46:20;;;;;;;10.18;6.10;;;;;;;-4.10;75.28;101829.58;1468823;88;21471;-88
2023/02/05 05:48:45;;;;;;;11.35;5.33;;;;;;;-4.08;75.35;101833.45;1467433;88;21537;-90
2023/02/05 05:51:11;;;;;;;14.10;4.60;;;;;;;-4.07;75.15;101838.17;1477937;88;21553;-91
2023/02/05 05:53:43;;;;;;;9.70;5.53;;;;;;;-4.10;75.01;101839.92;1474329;88;21701;-91
2023/02/05 05:56:09;;;;;;;12.60;5.33;;;;;;;-4.09;75.22;101835.59;1471561;88;21375;-89
2023/02/05 05:58:36;;;;;;;11.50;5.25;;;;;;;-4.06;74.94;101838.58;1477763;88;21633;-89
2023/02/05 06:01:03;;;;;;;13.80;6.00;;;;;;;-4.08;75.02;101843.80;1460858;88;22499;-88
2023/02/05 06:03:29;;;;;;;10.95;5.55;;;;;;;-4.05;75.11;101844.19;1475940;88;21449;-89
2023/02/05 06:05:55;;;;;;;8.55;4.70;;;;;;;-4.10;75.11;101847.67;1474722;88;21611;-90
2023/02/05 06:08:21;;;;;;;10.78;5.22;;;;;;;-4.07;75.36;101847.23;1479716;88;21568;-89
2023/02/05 06:10:48;;;;;;;12.70;5.22;;;;;;;-4.05;75.60;101857.13;1464684;88;21428;-89
2023/02/05 06:13:14;;;;;;;11.25;5.37;;;;;;;-4.05;75.49;101854.53;1477364;88;21548;-90
2023/02/05 06:15:40;;;;;;;11.15;5.97;;;;;;;-4.05;75.53;101861.00;1475297;88;22344;-88
2023/02/05 06:18:06;;;;;;;11.00;5.12;;;;;;;-4.04;75.67;101873.05;1474591;88;22299;-90
2023/02/05 06:20:33;;;;;;;10.90;5.55;;;;;;;-4.05;75.75;101871.34;1473175;88;21397;-86
2023/02/05 06:22:59;;;;;;;11.40;5.35;;;;;;;-4.04;75.76;101876.48;1471934;88;21420;-86
2023/02/05 06:25:25;;;;;;;10.28;5.78;;;;;;;-3.97;75.71;101877.25;1478011;88;21478;-87
2023/02/05 06:27:51;;;;;;;11.53;6.22;;;;;;;-4.00;75.76;101882.05;1476665;88;21575;-88
2023/02/05 06:30:18;;;;;;;9.00;4.30;;;;;;;-3.99;75.95;101884.20;1470638;88;21485;-89
2023/02/05 06:32:45;;;;;;;11.55;5.37;;;;;;;-3.98;75.90;101888.48;1470937;88;21441;-88
2023/02/05 06:35:11;;;;;;;15.65;4.92;;;;;;;-3.94;76.09;101900.48;1475720;88;21411;-90
2023/02/05 06:37:40;;;;;;;11.88;5.42;;;;;;;-3.91;75.76;101897.89;1469704;88;22402;-88
2023/02/05 06:40:09;;;;;;;11.25;5.42;;;;;;;-3.81;75.69;101906.38;1476817;88;22380;-88
2023/02/05 06:42:35;;;;;;;12.05;4.60;;;;;;;-3.76;75.65;101900.72;1470782;88;21434;-87
2023/02/05 06:45:01;;;;;;;9.83;5.42;;;;;;;-3.78;75.60;101902.02;1481185;88;21581;-89
2023/02/05 06:47:27;;;;;;;10.23;4.67;;;;;;;-3.64;75.41;101908.30;1476408;88;21510;-90
2023/02/05 06:49:54;;;;;;;12.43;5.08;;;;;;;-3.61;75.03;101905.67;1472309;88;21640;-90
2023/02/05 06:52:25;;;;;;;;;;;;;;;-3.51;74.92;101912.86;1479371;88;21448;-87
2023/02/05 06:54:51;;;;;;;10.90;5.20;;;;;;;-3.40;74.82;101919.59;1470306;88;20370;-90
2023/02/05 06:57:17;;;;;;;10.32;5.35;;;;;;;-3.37;74.33;101910.93;1474715;88;21486;-89
2023/02/05 06:59:48;;;;;;;10.68;4.97;;;;;;;-3.28;74.20;101918.59;1455656;88;21411;-90
2023/02/05 07:02:14;;;;;;;;;;;;;;;-3.23;73.78;101913.31;1472257;88;21544;-91
2023/02/05 07:04:41;;;;;;;10.80;5.28;;;;;;;-3.12;73.10;101917.89;1477975;88;20298;-90
2023/02/05 07:07:07;;;;;;;11.85;5.58;;;;;;;-3.01;72.71;101912.55;1467945;88;21471;-89
2023/02/05 07:09:33;;;;;;;9.90;5.53;;;;;;;-3.00;72.07;101909.07;1451850;88;21541;-87
2023/02/05 07:11:59;;;;;;;9.40;4.65;;;;;;;-2.99;71.76;101912.95;1481335;88;21463;-86
2023/02/05 07:14:26;;;;;;;8.28;4.05;;;;;;;-2.99;71.07;101915.98;1465294;88;21456;-88
2023/02/05 07:16:52;;;;;;;11.38;5.35;;;;;;;-3.02;71.72;101923.36;1472915;88;21405;-89
2023/02/05 07:19:18;;;;;;;9.48;4.78;;;;;;;-2.93;71.61;101921.06;1470836;88;21523;-87
2023/02/05 07:21:45;;;;;;;15.98;7.25;;;;;;;-2.94;71.36;101920.63;1470931;88;21434;-90
2023/02/05 07:24:11;;;;;;;9.55;5.20;;;;;;;-2.86;71.95;101922.66;1473603;88;21560;-88
2023/02/05 07:26:37;;;;;;;9.73;5.03;;;;;;;-2.91;72.18;101933.97;1483717;88;21397;-88
2023/02/05 07:29:04;;;;;;;11.35;4.92;;;;;;;-2.91;71.77;101945.19;1469559;88;21626;-87
2023/02/05 07:31:31;;;;;;;7.20;3.85;;;;;;;-2.86;71.88;101944.68;1470009;88;21449;-87
2023/02/05 07:33:57;;;;;;;10.82;5.17;;;;;;;-2.92;71.22;101947.38;1467285;88;22492;-89
2023/02/05 07:36:23;;;;;;;14.28;6.45;;;;;;;-2.83;71.45;101939.89;1470651;88;21457;-88
2023/02/05 07:38:50;;;;;;;11.97;5.12;;;;;;;-2.73;70.92;101938.42;1474380;88;21626;-87
2023/02/05 07:41:16;;;;;;;12.40;5.97;;;;;;;-2.66;70.55;101942.20;1478429;88;21449;-88
2023/02/05 07:43:43;;;;;;;9.65;5.25;;;;;;;-2.62;70.69;101942.55;1471034;88;21586;-88
2023/02/05 07:46:13;;;;;;;14.58;6.05;;;;;;;-2.55;69.89;101939.84;1478094;88;21434;-89
2023/02/05 07:48:39;;;;;;;8.65;4.53;;;;;;;-2.49;69.44;101944.06;1475310;88;21604;-88
2023/02/05 07:51:06;;;;;;;8.80;4.58;;;;;;;-2.40;69.02;101945.64;1466948;88;22403;-88
2023/02/05 07:53:32;;;;;;;7.67;4.35;;;;;;;-2.30;68.79;101944.16;1474737;88;21556;-77
2023/02/05 07:56:03;;;;;;;5.65;3.42;;;;;;;-2.10;71.50;101941.59;1464167;88;21442;-78
2023/02/05 07:58:30;;;;;;;9.90;4.83;;;;;;;-1.83;70.24;101943.66;1466429;88;21397;-78
2023/02/05 08:01:02;;;;;;;12.18;5.37;;;;;;;-1.59;69.20;101941.43;1452934;88;22372;-79
2023/02/05 08:03:28;;;;;;;7.55;3.30;;;;;;;-1.34;70.12;101942.20;1483780;88;21456;-86
2023/02/05 08:05:55;;;;;;;7.97;4.33;;;;;;;-1.65;65.73;101945.45;1477789;88;21641;-86
2023/02/05 08:08:22;;;;;;;9.95;4.42;;;;;;;-1.61;66.74;101952.31;1483938;88;21648;-84
2023/02/05 08:11:04;;;;;;;7.22;3.70;;;;;;;-1.67;66.20;101951.12;1469942;88;21390;-86
2023/02/05 08:13:31;;;;;;;8.23;4.00;;;;;;;-1.89;65.14;101946.38;1475615;88;21449;-85
2023/02/05 08:20:02;;;;;;;7.85;4.72;;;;;;;-1.88;66.63;101948.08;1460945;88;21634;-84
2023/02/05 08:25:56;;;;;;;8.80;5.15;;;;;;;-1.86;65.61;101945.02;1346430;97;22780;-84
2023/02/05 08:28:25;;;;;;;9.57;4.53;;;;;;;-1.88;65.58;101953.72;1390832;93;21561;-82
2023/02/05 08:30:52;;;;;;;26.65;12.78;;;;;;;-1.85;66.48;101968.78;1406902;93;22118;-84
2023/02/05 08:33:18;;;;;;;26.60;11.17;;;;;;;-1.80;65.52;101956.17;1401728;93;22484;-83
2023/02/05 08:35:44;;;;;;;7.28;4.17;;;;;;;-1.84;64.87;101954.94;1398744;93;23256;-84
2023/02/05 08:38:10;;;;;;;29.67;16.25;;;;;;;-1.89;64.82;101954.17;1411132;93;21421;-84
2023/02/05 08:40:37;;;;;;;7.47;4.33;;;;;;;-1.85;64.80;101959.70;1402507;92;21620;-83
2023/02/05 08:43:03;;;;;;;7.30;4.53;;;;;;;-1.80;63.85;101957.02;1401920;93;22611;-84
2023/02/05 08:45:30;;;;;;;8.03;4.20;;;;;;;-1.83;64.61;101964.42;1400817;93;22691;-82
2023/02/05 08:47:56;;;;;;;7.62;4.35;;;;;;;-1.86;64.26;101957.14;1409437;93;22595;-84
2023/02/05 08:50:22;;;;;;;7.80;3.67;;;;;;;-1.98;63.04;101965.19;1398192;93;21450;-84
2023/02/05 08:52:49;;;;;;;12.50;5.97;;;;;;;-1.89;64.02;101969.73;1409060;93;21576;-82
2023/02/05 08:55:19;;;;;;;5.15;3.30;;;;;;;-1.83;63.05;101977.40;1416477;93;21523;-82
2023/02/05 08:57:45;;;;;;;7.33;4.72;;;;;;;-1.68;63.36;101988.36;1407240;93;21509;-84
2023/02/05 09:00:14;;;;;;;6.75;3.15;;;;;;;-1.64;63.10;101983.50;1410886;88;22626;-84
2023/02/05 09:02:42;;;;;;;12.55;4.83;;;;;;;-1.72;61.87;101986.73;1469579;88;21478;-83
2023/02/05 09:05:12;;;;;;;8.30;4.25;;;;;;;-1.79;61.07;101990.31;1477723;88;21612;-84
2023/02/05 09:07:40;;;;;;;8.50;4.28;;;;;;;-1.73;62.63;102000.13;1471707;88;22483;-83
2023/02/05 09:10:10;;;;;;;8.15;3.40;;;;;;;-1.83;61.08;102000.76;1481889;88;21411;-85
2023/02/05 09:12:36;;;;;;;5.90;3.42;;;;;;;-1.62;62.77;101986.93;1490965;88;21434;-84
2023/02/05 09:15:05;;;;;;;8.68;4.72;;;;;;;-1.51;61.50;101987.56;1481901;88;21540;-82
2023/02/05 09:17:31;;;;;;;5.83;3.20;;;;;;;-1.42;61.75;101978.27;1473665;87;21426;-86
2023/02/05 09:19:57;;;;;;;9.05;3.50;;;;;;;-1.36;60.64;101992.42;1482737;88;21419;-85
2023/02/05 09:22:23;;;;;;;7.58;4.30;;;;;;;-1.34;60.13;101988.52;1479817;88;21471;-85
2023/02/05 09:24:50;;;;;;;7.05;4.33;;;;;;;-1.30;59.27;101991.89;1494207;88;21559;-85
2023/02/05 09:27:16;;;;;;;6.67;4.00;;;;;;;-1.25;59.68;101990.91;1480193;88;21604;-86
2023/02/05 09:29:42;;;;;;;6.10;3.33;;;;;;;-1.03;60.68;101996.48;1486708;88;21500;-86
2023/02/05 09:32:08;;;;;;;9.23;3.97;;;;;;;-0.95;59.51;101997.16;1474819;88;23164;-87
2023/02/05 09:34:34;;;;;;;5.60;2.67;;;;;;;-1.19;57.79;101995.11;1481968;88;21744;-88
2023/02/05 09:37:01;;;;;;;6.57;3.10;;;;;;;-1.15;56.76;101994.17;1476755;88;21579;-90
2023/02/05 09:39:28;;;;;;;16.07;7.00;;;;;;;-1.09;57.33;102003.54;1485682;88;21691;-91
2023/02/05 09:42:20;;;;;;;16.63;7.60;;;;;;;-0.56;56.57;101997.53;1459383;88;21828;-90
2023/02/05 09:44:57;;;;;;;17.27;8.47;;;;;;;1.30;54.33;101996.55;1476345;88;21664;-93
2023/02/05 09:47:37;;;;;;;17.67;8.77;;;;;;;1.30;54.33;101996.55;1482048;88;21858;-93
2023/02/05 09:50:10;;;;;;;7.37;4.27;;;;;;;1.25;53.62;101998.45;1480483;88;22153;-90
2023/02/05 09:52:51;;;;;;;7.73;3.80;;;;;;;1.33;51.24;101989.92;1485037;88;22132;-91
2023/02/05 09:55:29;;;;;;;;;;;;;;;1.04;52.01;101985.65;1459583;88;21486;-93
2023/02/05 09:58:07;;;;;;;4.73;3.10;;;;;;;1.11;51.38;101983.69;1484948;87;20375;-87
2023/02/05 10:00:48;;;;;;;5.37;3.00;;;;;;;1.27;51.97;101994.05;1480797;88;21462;-88
2023/02/05 10:07:39;;;;;;;13.80;8.20;;;;;;;0.87;51.58;101985.33;1459615;88;21507;-89
2023/02/05 10:10:25;;;;;;;3.93;2.67;;;;;;;1.33;51.32;101971.67;1478193;88;21648;-88
2023/02/05 10:13:31;;;;;;;14.77;7.27;;;;;;;0.81;51.80;101978.55;1472964;88;22764;-90
2023/02/05 10:16:27;;;;;;;5.13;3.33;;;;;;;1.10;51.00;101971.56;1476128;88;21589;-89
2023/02/05 10:19:16;;;;;;;9.77;5.70;;;;;;;1.04;51.28;101974.38;1474203;88;21434;-88
2023/02/05 10:21:57;;;;;;;5.73;3.53;;;;;;;1.32;51.18;101982.14;1470896;88;21412;-88
2023/02/05 10:24:47;;;;;;;4.65;3.08;;;;;;;0.82;51.03;101980.23;1469628;88;22284;-90
2023/02/05 10:27:27;;;;;;;6.40;4.17;;;;;;;0.93;51.00;101976.46;1470782;88;21457;-90
2023/02/05 10:30:20;;;;;;;7.25;4.30;;;;;;;0.31;51.00;101973.06;1456571;88;22262;-90
2023/02/05 10:32:56;;;;;;;7.80;4.90;;;;;;;0.39;53.09;101981.52;1465609;88;21449;-90
2023/02/05 10:35:58;;;;;;;3.73;2.47;;;;;;;0.25;52.88;101967.19;1472024;88;22366;-90
2023/02/05 10:38:28;;;;;;;5.67;3.02;;;;;;;-0.16;52.07;101977.00;1471763;88;22205;-92
2023/02/05 10:41:21;;;;;;;4.83;3.02;;;;;;;-0.34;53.95;101968.79;1475079;88;21523;-87
2023/02/05 10:44:32;;;;;;;5.90;2.87;;;;;;;-0.68;53.45;101970.09;1427104;91;21545;-90
2023/02/05 10:47:03;;;;;;;6.07;2.77;;;;;;;-0.68;53.45;101970.09;1432358;91;21809;-87
2023/02/05 10:49:56;;;;;;;5.17;3.17;;;;;;;-0.28;53.84;101963.88;1459004;88;21703;-89
2023/02/05 10:52:23;;;;;;;5.37;3.70;;;;;;;0.59;52.91;101963.16;1473482;88;21840;-88
2023/02/05 10:54:49;;;;;;;5.37;3.23;;;;;;;0.59;52.91;101963.16;1472737;88;22140;-88
2023/02/05 10:57:22;;;;;;;6.90;4.00;;;;;;;0.45;52.74;101954.44;1469962;88;23109;-86
2023/02/05 10:59:59;;;;;;;6.83;3.23;;;;;;;0.81;52.76;101953.78;1477669;88;22340;-86
2023/02/05 11:02:35;;;;;;;4.10;2.80;;;;;;;0.79;51.44;101955.58;1481579;88;21813;-89
2023/02/05 11:05:07;;;;;;;3.57;2.57;;;;;;;0.02;51.17;101941.80;1477897;88;21627;-87
2023/02/05 11:07:46;;;;;;;4.33;3.00;;;;;;;0.05;52.45;101952.13;1432484;91;22391;-87
2023/02/05 11:10:24;;;;;;;4.67;3.20;;;;;;;0.05;52.45;101952.13;1422788;91;21669;-87
2023/02/05 11:17:23;;;;;;;5.83;3.30;;;;;;;-0.53;54.11;101957.99;1464582;88;22206;-87
2023/02/05 11:20:15;;;;;;;5.93;3.30;;;;;;;-0.41;56.16;101968.98;1467432;88;22135;-89
2023/02/05 11:22:42;;;;;;;5.70;3.10;;;;;;;-0.41;56.16;101968.98;1472462;88;21818;-88
2023/02/05 11:25:20;;;;;;;5.40;3.03;;;;;;;-0.38;54.51;101968.90;1476794;88;22221;-88
2023/02/05 11:27:57;;;;;;;5.67;3.87;;;;;;;-0.94;54.18;101962.47;1476235;88;21737;-88
2023/02/05 11:30:34;;;;;;;5.70;2.47;;;;;;;-0.78;55.63;101975.09;1476575;88;22673;-88
2023/02/05 11:33:26;;;;;;;5.17;3.50;;;;;;;-1.11;55.49;101978.06;1477669;88;21690;-90
2023/02/05 11:36:03;;;;;;;6.50;3.20;;;;;;;-1.03;56.43;101980.89;1462091;88;21566;-90
2023/02/05 11:38:47;;;;;;;9.20;3.37;;;;;;;-1.13;56.96;101967.69;1461529;88;21711;-90
2023/02/05 11:41:50;;;;;;;6.77;3.53;;;;;;;-0.92;57.62;101963.30;1472323;88;22733;-92
2023/02/05 11:44:31;;;;;;;6.97;3.37;;;;;;;-0.96;58.13;101969.44;1476181;88;21869;-88
2023/02/05 11:47:00;;;;;;;7.57;3.10;;;;;;;-0.98;58.46;101975.14;1476082;88;21677;-90
2023/02/05 11:49:37;;;;;;;6.60;3.80;;;;;;;-1.08;57.72;101969.73;1469250;88;22299;-90
2023/02/05 11:52:13;;;;;;;4.70;3.07;;;;;;;-0.95;58.58;101975.07;1456246;88;21507;-90
2023/02/05 11:54:46;;;;;;;5.43;3.43;;;;;;;-1.01;57.66;101970.44;1468560;88;21609;-91
2023/02/05 11:57:30;;;;;;;7.17;3.47;;;;;;;-1.03;56.68;101965.30;1557876;88;21630;-91
2023/02/05 12:00:19;;;;;;;4.20;2.57;;;;;;;-0.99;57.33;101968.22;1476683;88;21574;-90
2023/02/05 12:02:50;;;;;;;4.77;3.40;;;;;;;-1.13;57.45;101968.98;1470008;88;21552;-87